Falls Creek, Pennsylvania
Current Conditions -  °F | °C
As of 5:53 AM on Saturday 20 Dec 2014 (Local Time) from KDUJ Reporting Station
Overcast Overcast  
Wind Chill: 23°   Ceiling: 1500
Heat Index: 23°   Visibility: 10mi
Dew Point: 18°   Wind: 3mph
Humidity: 81%   Direction: 10°N
Pressure: 30.2"   Gusts: NA
Location:  41.15°N, 78.8°W
Report Text: KDUJ 201053Z AUTO 01003KT 10SM OVC015 M05/M08 A3020 RMK AO2 SLP251 T10501078
Loading
Personal Weather Stations






























Interactive Weather Map New forecast layout! Learn more

10-Day Weather Forecast

Advertisements
Track Severe Weather on mobile